Time;durP1;ratioP1;P1;durP2;ratioP2;P2;SDS_P1;SDS_P2;PMS_P1;PMS_P2;Temp;Humidity;BMP_temperature;BMP_pressure;BME280_temperature;BME280_humidity;BME280_pressure;Samples;Min_cycle;Max_cycle;Signal;HPM_P1;HPM_P2
2021/12/09 00:00:31;;;;;;;6.47;2.37;;;2.60;99.90;;;;;;5011558;28;20562;-85
2021/12/09 00:03:05;;;;;;;12.43;3.00;;;2.60;99.90;;;;;;4997726;28;20996;-85
2021/12/09 00:05:34;;;;;;;3.70;2.60;;;2.60;99.90;;;;;;5008718;28;20604;-86
2021/12/09 00:08:01;;;;;;;5.40;2.87;;;2.50;99.90;;;;;;5011402;28;20515;-87
2021/12/09 00:10:28;;;;;;;7.13;3.23;;;2.50;99.90;;;;;;5007007;28;20475;-85
2021/12/09 00:12:55;;;;;;;4.10;2.70;;;2.50;99.90;;;;;;5025266;28;20473;-86
2021/12/09 00:15:22;;;;;;;8.00;2.93;;;2.50;99.90;;;;;;5024463;28;20966;-85
2021/12/09 00:17:49;;;;;;;5.87;2.70;;;2.50;99.90;;;;;;5019943;28;21002;-86
2021/12/09 00:20:18;;;;;;;8.07;2.93;;;2.50;99.90;;;;;;5011069;28;20459;-85
2021/12/09 00:22:47;;;;;;;9.40;3.67;;;2.40;99.90;;;;;;5022139;28;20593;-86
2021/12/09 00:25:14;;;;;;;5.80;3.77;;;2.40;99.90;;;;;;5021560;28;20461;-86
2021/12/09 00:27:42;;;;;;;10.73;2.90;;;2.40;99.90;;;;;;5007924;28;20480;-86
2021/12/09 00:30:10;;;;;;;6.30;3.30;;;2.40;99.90;;;;;;5027813;22;20504;-82
2021/12/09 00:32:38;;;;;;;9.83;3.50;;;2.30;99.90;;;;;;5020569;28;20457;-81
2021/12/09 00:35:06;;;;;;;5.83;2.77;;;2.30;99.90;;;;;;5019889;28;20458;-80
2021/12/09 00:37:38;;;;;;;7.30;3.20;;;2.30;99.90;;;;;;5020787;28;20466;-82
2021/12/09 00:40:09;;;;;;;11.30;3.40;;;2.30;99.90;;;;;;5031474;28;20492;-82
2021/12/09 00:42:36;;;;;;;6.53;3.00;;;2.20;99.90;;;;;;5026166;28;20449;-82
2021/12/09 00:45:04;;;;;;;7.20;3.10;;;2.20;99.90;;;;;;5037067;28;20452;-82
2021/12/09 00:47:31;;;;;;;7.70;3.40;;;2.20;99.90;;;;;;5032362;28;20468;-81
2021/12/09 00:49:58;;;;;;;7.63;2.70;;;2.20;99.90;;;;;;5036700;28;20471;-82
2021/12/09 00:52:26;;;;;;;10.30;3.77;;;2.10;99.90;;;;;;5019762;28;20517;-82
2021/12/09 00:54:54;;;;;;;6.50;3.03;;;2.10;99.90;;;;;;5020002;28;20460;-82
2021/12/09 00:57:23;;;;;;;5.30;2.70;;;2.10;99.90;;;;;;5021358;28;20825;-82
2021/12/09 00:59:50;;;;;;;7.70;3.17;;;2.10;99.90;;;;;;5019141;28;20486;-82
2021/12/09 01:02:17;;;;;;;5.13;3.37;;;2.10;99.90;;;;;;5036066;28;20449;-81
2021/12/09 01:04:45;;;;;;;4.18;2.75;;;2.10;99.90;;;;;;5039000;28;20464;-82
2021/12/09 01:07:12;;;;;;;7.13;3.83;;;2.10;99.90;;;;;;5020752;28;20877;-81
2021/12/09 01:09:39;;;;;;;6.17;3.20;;;2.10;99.90;;;;;;5018620;28;20553;-82
2021/12/09 01:12:08;;;;;;;11.03;3.60;;;2.10;99.90;;;;;;5019264;28;20910;-81
2021/12/09 01:14:37;;;;;;;6.23;3.27;;;2.10;99.90;;;;;;5028324;28;20456;-81
2021/12/09 01:17:05;;;;;;;7.20;3.10;;;2.10;99.90;;;;;;5038611;28;20452;-82
2021/12/09 01:19:32;;;;;;;5.80;3.17;;;2.10;99.90;;;;;;5037287;28;20489;-82
2021/12/09 01:21:59;;;;;;;4.93;2.80;;;2.00;99.90;;;;;;5038043;28;20446;-82
2021/12/09 01:24:25;;;;;;;6.00;4.00;;;2.10;99.90;;;;;;5031136;28;20836;-81
2021/12/09 01:26:52;;;;;;;5.83;3.20;;;2.10;99.90;;;;;;5017208;28;20452;-82
2021/12/09 01:29:28;;;;;;;5.87;3.17;;;2.00;99.90;;;;;;5017460;28;20481;-82
2021/12/09 01:32:00;;;;;;;7.43;3.37;;;2.00;99.90;;;;;;5027327;28;20988;-82
2021/12/09 01:34:27;;;;;;;8.20;2.93;;;1.90;99.90;;;;;;5028688;28;20528;-82
2021/12/09 01:36:54;;;;;;;6.73;2.50;;;1.90;99.90;;;;;;5017545;28;20537;-81
2021/12/09 01:39:21;;;;;;;4.40;2.67;;;1.90;99.90;;;;;;5017594;28;20489;-82
2021/12/09 01:41:49;;;;;;;6.17;3.10;;;1.90;99.90;;;;;;5025060;28;20461;-81
2021/12/09 01:44:16;;;;;;;6.27;2.40;;;1.90;99.90;;;;;;5036349;28;20449;-81
2021/12/09 01:46:43;;;;;;;9.53;2.87;;;1.90;99.90;;;;;;5037896;28;20480;-81
2021/12/09 01:49:11;;;;;;;12.10;3.15;;;1.90;99.90;;;;;;5029246;28;20465;-82
2021/12/09 01:51:40;;;;;;;6.27;2.93;;;1.80;99.90;;;;;;5016174;28;20211;-80
2021/12/09 01:54:07;;;;;;;8.97;3.63;;;1.80;99.90;;;;;;5015344;28;20454;-81
2021/12/09 01:56:34;;;;;;;12.00;3.20;;;1.80;99.90;;;;;;5018533;28;20456;-82
2021/12/09 01:59:04;;;;;;;7.87;2.63;;;1.80;99.90;;;;;;5017442;28;20530;-81
2021/12/09 02:01:33;;;;;;;7.23;2.93;;;1.80;99.90;;;;;;5016268;28;20449;-81
2021/12/09 02:04:01;;;;;;;6.90;2.70;;;1.80;99.90;;;;;;5017773;28;20454;-82
2021/12/09 02:06:30;;;;;;;5.50;3.00;;;1.70;99.90;;;;;;5019862;28;20472;-82
2021/12/09 02:08:57;;;;;;;7.13;3.35;;;1.70;99.90;;;;;;5037173;28;20472;-81
2021/12/09 02:11:24;;;;;;;5.83;3.00;;;1.70;99.90;;;;;;5036625;28;20206;-81
2021/12/09 02:13:55;;;;;;;11.50;3.43;;;1.70;99.90;;;;;;5020041;28;20457;-81
2021/12/09 02:16:22;;;;;;;5.38;3.47;;;1.70;99.90;;;;;;5018959;28;20469;-82
2021/12/09 02:18:49;;;;;;;7.55;3.45;;;1.70;99.90;;;;;;5017245;28;20238;-81
2021/12/09 02:21:19;;;;;;;7.55;3.65;;;1.60;99.90;;;;;;5026740;28;20203;-82
2021/12/09 02:23:49;;;;;;;4.78;2.38;;;1.60;99.90;;;;;;5015532;28;20203;-82
2021/12/09 02:26:18;;;;;;;8.70;3.20;;;1.60;99.90;;;;;;5020190;28;20209;-81
2021/12/09 02:28:45;;;;;;;7.60;3.07;;;1.60;99.90;;;;;;5014337;28;21022;-82
2021/12/09 02:31:13;;;;;;;7.93;3.23;;;1.60;99.90;;;;;;5017682;28;20450;-82
2021/12/09 02:33:40;;;;;;;11.60;2.60;;;1.60;99.90;;;;;;5019589;28;20453;-82
2021/12/09 02:36:07;;;;;;;5.82;3.28;;;1.50;99.90;;;;;;5020003;28;20452;-81
2021/12/09 02:38:41;;;;;;;7.17;3.50;;;1.50;99.90;;;;;;5022990;28;20223;-82
2021/12/09 02:41:10;;;;;;;7.27;3.10;;;1.50;99.90;;;;;;5010671;28;20457;-81
2021/12/09 02:43:37;;;;;;;7.70;3.13;;;1.50;99.90;;;;;;5017741;28;20461;-82
2021/12/09 02:46:04;;;;;;;6.40;2.93;;;1.50;99.90;;;;;;5016440;28;20462;-81
2021/12/09 02:48:31;;;;;;;4.93;2.83;;;1.50;99.90;;;;;;5014937;28;20484;-82
2021/12/09 02:50:57;;;;;;;7.22;3.20;;;1.40;99.90;;;;;;5015521;28;20203;-82
2021/12/09 02:53:24;;;;;;;7.38;3.25;;;1.40;99.90;;;;;;5030936;28;20206;-80
2021/12/09 02:55:52;;;;;;;6.00;3.70;;;1.40;99.90;;;;;;5036627;28;20208;-81
2021/12/09 02:58:19;;;;;;;8.02;3.13;;;1.40;99.90;;;;;;5021930;28;20457;-82
2021/12/09 03:00:58;;;;;;;5.60;2.78;;;1.40;99.90;;;;;;5015601;28;20266;-82
2021/12/09 03:03:26;;;;;;;5.55;3.17;;;1.40;99.90;;;;;;5034253;28;20206;-81
2021/12/09 03:05:54;;;;;;;9.23;3.15;;;1.30;99.90;;;;;;5035983;28;20206;-81
2021/12/09 03:08:32;;;;;;;6.00;3.05;;;1.30;99.90;;;;;;5033397;28;20203;-81
2021/12/09 03:11:03;;;;;;;8.43;3.30;;;1.30;99.90;;;;;;5015779;28;20675;-81
2021/12/09 03:13:29;;;;;;;5.80;2.80;;;1.30;99.90;;;;;;5035038;28;20453;-81
2021/12/09 03:15:56;;;;;;;6.28;2.92;;;1.30;99.90;;;;;;5035833;28;20459;-81
2021/12/09 03:18:23;;;;;;;9.80;3.00;;;1.30;99.90;;;;;;5032273;28;20260;-81
2021/12/09 03:20:50;;;;;;;7.50;3.20;;;1.20;99.90;;;;;;5034709;28;20490;-81
2021/12/09 03:23:17;;;;;;;3.97;2.80;;;1.20;99.90;;;;;;5019280;28;20450;-81
2021/12/09 03:25:44;;;;;;;5.82;2.97;;;1.20;99.90;;;;;;5019986;28;20202;-81
2021/12/09 03:28:12;;;;;;;9.73;3.27;;;1.20;99.90;;;;;;5018976;28;20207;-81
2021/12/09 03:30:39;;;;;;;4.40;3.07;;;1.20;99.90;;;;;;5031227;28;20452;-81
2021/12/09 03:33:06;;;;;;;6.53;3.10;;;1.20;99.90;;;;;;5038965;28;20458;-80
2021/12/09 03:35:33;;;;;;;7.32;3.38;;;1.20;99.90;;;;;;5025720;28;20210;-81
2021/12/09 03:37:59;;;;;;;7.82;3.63;;;1.20;99.90;;;;;;5019623;28;20212;-81
2021/12/09 03:40:26;;;;;;;7.75;3.15;;;1.20;99.90;;;;;;5030171;28;20698;-81
2021/12/09 03:42:53;;;;;;;5.45;3.30;;;1.10;99.90;;;;;;5019049;28;20214;-80
2021/12/09 03:45:21;;;;;;;5.72;2.78;;;1.10;99.90;;;;;;5020313;28;20214;-80
2021/12/09 03:47:48;;;;;;;5.63;3.20;;;1.00;99.90;;;;;;5017265;28;20214;-80
2021/12/09 03:50:17;;;;;;;5.23;3.07;;;1.00;99.90;;;;;;5027387;28;20222;-79
2021/12/09 03:52:44;;;;;;;6.90;2.75;;;1.00;99.90;;;;;;5020193;28;20816;-80
2021/12/09 03:55:11;;;;;;;5.10;2.90;;;1.00;99.90;;;;;;5036808;28;20213;-79
2021/12/09 03:57:38;;;;;;;5.28;3.28;;;1.00;99.90;;;;;;5038990;28;20205;-80
2021/12/09 04:00:07;;;;;;;6.47;3.13;;;1.00;99.90;;;;;;5024124;28;20711;-81
2021/12/09 04:02:36;;;;;;;9.85;3.60;;;1.00;99.90;;;;;;5039168;28;20202;-81
2021/12/09 04:05:02;;;;;;;6.20;3.00;;;0.90;99.90;;;;;;5022147;28;20237;-81
2021/12/09 04:07:29;;;;;;;5.90;3.33;;;0.90;99.90;;;;;;5019758;28;20206;-81
2021/12/09 04:09:56;;;;;;;7.93;3.83;;;0.90;99.90;;;;;;5031468;28;20280;-81
2021/12/09 04:12:23;;;;;;;5.93;3.33;;;0.80;99.90;;;;;;5038266;28;20816;-81
2021/12/09 04:14:49;;;;;;;8.05;3.10;;;0.80;99.90;;;;;;5025697;28;20210;-81
2021/12/09 04:17:16;;;;;;;4.97;3.05;;;0.80;99.90;;;;;;5021149;28;20210;-81
2021/12/09 04:19:47;;;;;;;11.45;3.47;;;0.90;99.90;;;;;;5036982;28;20233;-81
2021/12/09 04:22:15;;;;;;;6.80;3.35;;;0.90;99.90;;;;;;5026306;28;20214;-81
2021/12/09 04:24:42;;;;;;;12.07;4.15;;;0.90;99.90;;;;;;5020834;28;20202;-81
2021/12/09 04:27:09;;;;;;;6.72;3.20;;;0.90;99.90;;;;;;5019838;28;20684;-80
2021/12/09 04:29:36;;;;;;;5.47;3.50;;;0.80;99.90;;;;;;5029240;28;20740;-79
2021/12/09 04:32:04;;;;;;;9.23;3.85;;;0.90;99.90;;;;;;5040532;28;20217;-79
2021/12/09 04:34:31;;;;;;;8.60;3.38;;;0.80;99.90;;;;;;5032234;28;20201;-80
2021/12/09 04:37:00;;;;;;;6.95;3.22;;;0.80;99.90;;;;;;5031808;28;20690;-80
2021/12/09 04:39:26;;;;;;;7.25;3.03;;;0.80;99.90;;;;;;5026315;28;20231;-80
2021/12/09 04:41:54;;;;;;;7.35;4.07;;;0.80;99.90;;;;;;5035147;28;20216;-82
2021/12/09 04:44:21;;;;;;;6.70;3.05;;;0.80;99.90;;;;;;5019510;28;20209;-80
2021/12/09 04:46:49;;;;;;;8.27;3.60;;;0.80;99.90;;;;;;5020503;28;20199;-81
2021/12/09 04:49:16;;;;;;;7.78;3.50;;;0.80;99.90;;;;;;5016910;28;20226;-81
2021/12/09 04:51:43;;;;;;;4.23;3.00;;;0.80;99.90;;;;;;5026438;28;20605;-78
2021/12/09 04:54:11;;;;;;;7.18;3.40;;;0.70;99.90;;;;;;5017544;28;20937;-80
2021/12/09 04:56:38;;;;;;;8.40;3.53;;;0.70;99.90;;;;;;5031114;28;20209;-80
2021/12/09 04:59:06;;;;;;;7.00;3.45;;;0.70;99.90;;;;;;5036181;28;20225;-79
2021/12/09 05:01:33;;;;;;;9.65;3.40;;;0.70;99.90;;;;;;5036059;28;20210;-80
2021/12/09 05:03:59;;;;;;;8.55;3.10;;;0.70;99.90;;;;;;5035667;28;20208;-79
2021/12/09 05:06:27;;;;;;;8.32;3.08;;;0.70;99.90;;;;;;5037291;28;20213;-80
2021/12/09 05:08:53;;;;;;;7.60;3.58;;;0.70;99.90;;;;;;5033853;28;20987;-80
2021/12/09 05:11:34;;;;;;;5.60;3.70;;;0.70;99.90;;;;;;5010517;28;20195;-81
2021/12/09 05:14:01;;;;;;;7.32;3.20;;;0.70;99.90;;;;;;5018249;28;20210;-82
2021/12/09 05:16:28;;;;;;;5.97;3.50;;;0.80;99.90;;;;;;5026107;28;20203;-80
2021/12/09 05:18:58;;;;;;;6.10;3.10;;;0.70;99.90;;;;;;5018166;28;20743;-80
2021/12/09 05:21:28;;;;;;;9.00;3.60;;;0.80;99.90;;;;;;5016248;28;20309;-80
2021/12/09 05:23:55;;;;;;;9.37;3.53;;;0.80;99.90;;;;;;5025968;28;22037;-80
2021/12/09 05:26:27;;;;;;;8.43;4.00;;;0.90;99.90;;;;;;5014791;28;20457;-80
2021/12/09 05:28:56;;;;;;;14.02;3.42;;;1.00;99.90;;;;;;5016832;28;20531;-81
2021/12/09 05:34:08;;;;;;;8.33;3.20;;;1.00;99.90;;;;;;4998303;28;20291;-81
2021/12/09 05:36:35;;;;;;;10.30;3.53;;;1.00;99.90;;;;;;5017280;28;20457;-80
2021/12/09 05:39:03;;;;;;;6.45;3.47;;;1.00;99.90;;;;;;5031776;28;20473;-81
2021/12/09 05:41:33;;;;;;;9.73;4.20;;;1.10;99.90;;;;;;5016645;28;20229;-81
2021/12/09 05:44:01;;;;;;;11.48;4.97;;;1.30;99.90;;;;;;5017635;28;20538;-80
2021/12/09 05:46:27;;;;;;;5.63;3.33;;;1.30;99.90;;;;;;5018827;28;20214;-80
2021/12/09 05:48:55;;;;;;;9.20;3.37;;;1.30;99.90;;;;;;5017487;28;20228;-80
2021/12/09 05:51:23;;;;;;;7.53;3.33;;;1.40;99.90;;;;;;5016767;28;20452;-81
2021/12/09 05:53:50;;;;;;;8.67;3.63;;;1.40;99.90;;;;;;5027140;28;20212;-81
2021/12/09 05:56:17;;;;;;;6.07;3.90;;;1.40;99.90;;;;;;5037077;28;20455;-80
2021/12/09 05:58:45;;;;;;;11.50;5.07;;;1.40;99.90;;;;;;5047739;28;20482;-81
2021/12/09 06:01:13;;;;;;;6.33;3.20;;;1.50;99.90;;;;;;5027093;28;20485;-83
2021/12/09 06:03:39;;;;;;;9.48;4.15;;;1.50;99.90;;;;;;5029348;28;20453;-83
2021/12/09 06:06:06;;;;;;;7.00;3.80;;;1.50;99.90;;;;;;5044991;28;20206;-84
2021/12/09 06:08:36;;;;;;;9.98;3.95;;;1.40;99.90;;;;;;5045192;28;21023;-83
2021/12/09 06:11:03;;;;;;;7.25;4.05;;;1.50;99.90;;;;;;5043972;28;20275;-83
2021/12/09 06:13:32;;;;;;;7.10;3.22;;;1.50;99.90;;;;;;5044285;28;20214;-82
2021/12/09 06:16:00;;;;;;;6.38;3.80;;;1.50;99.90;;;;;;5044879;28;20750;-83
2021/12/09 06:18:27;;;;;;;6.43;3.63;;;1.50;99.90;;;;;;5044810;28;20213;-83
2021/12/09 06:20:54;;;;;;;9.47;3.70;;;1.50;99.90;;;;;;5043775;28;20225;-82
2021/12/09 06:23:21;;;;;;;5.97;3.33;;;1.50;99.90;;;;;;5028197;28;20460;-83
2021/12/09 06:25:49;;;;;;;8.77;4.10;;;1.60;99.90;;;;;;5023744;28;20453;-83
2021/12/09 06:28:16;;;;;;;7.90;4.37;;;1.60;99.90;;;;;;5024048;28;20558;-83
2021/12/09 06:30:44;;;;;;;7.00;4.03;;;1.60;99.90;;;;;;5023936;28;20442;-83
2021/12/09 06:33:27;;;;;;;9.23;4.18;;;1.60;99.90;;;;;;5023622;28;20213;-81
2021/12/09 06:35:53;;;;;;;7.10;3.70;;;1.60;99.90;;;;;;5022874;28;20217;-83
2021/12/09 06:38:20;;;;;;;6.30;3.97;;;1.60;99.90;;;;;;5029684;28;20203;-83
2021/12/09 06:40:47;;;;;;;7.50;3.42;;;1.60;99.90;;;;;;5022512;28;20549;-83
2021/12/09 06:43:15;;;;;;;7.10;4.40;;;1.60;99.90;;;;;;5023246;28;20221;-83
2021/12/09 06:45:43;;;;;;;8.57;4.07;;;1.50;99.90;;;;;;5024609;28;20226;-83
2021/12/09 06:48:10;;;;;;;7.97;3.70;;;1.70;99.90;;;;;;5023791;28;20210;-83
2021/12/09 06:50:39;;;;;;;7.97;3.90;;;1.70;99.90;;;;;;5021898;28;20209;-82
2021/12/09 06:53:06;;;;;;;8.05;4.13;;;1.60;99.90;;;;;;5026484;28;20214;-83
2021/12/09 06:55:33;;;;;;;8.80;4.03;;;1.60;99.90;;;;;;5029733;28;20551;-82
2021/12/09 06:58:00;;;;;;;11.15;3.95;;;1.60;99.90;;;;;;5037301;28;20460;-81
2021/12/09 07:00:29;;;;;;;7.87;3.67;;;1.60;99.90;;;;;;5040466;28;20233;-83
2021/12/09 07:02:57;;;;;;;9.97;4.30;;;1.50;99.90;;;;;;5035941;28;20840;-83
2021/12/09 07:05:26;;;;;;;9.88;4.25;;;1.50;99.90;;;;;;5025539;28;20456;-81
2021/12/09 07:07:54;;;;;;;6.90;3.35;;;1.50;99.90;;;;;;5024609;28;20203;-83
2021/12/09 07:10:22;;;;;;;7.38;3.75;;;1.50;99.90;;;;;;5022520;28;20230;-84
2021/12/09 07:12:49;;;;;;;6.22;3.40;;;1.40;99.90;;;;;;5027753;28;20205;-82
2021/12/09 07:15:17;;;;;;;9.02;3.88;;;1.40;99.90;;;;;;5041393;28;20210;-83
2021/12/09 07:17:44;;;;;;;6.95;3.25;;;1.40;99.90;;;;;;5034653;28;20202;-81
2021/12/09 07:20:14;;;;;;;7.88;3.35;;;1.40;99.90;;;;;;5021359;28;20227;-80
2021/12/09 07:22:41;;;;;;;6.78;3.13;;;1.40;99.90;;;;;;5040454;28;20198;-79
2021/12/09 07:25:10;;;;;;;12.32;3.75;;;1.30;99.90;;;;;;5042090;28;20273;-80
2021/12/09 07:27:37;;;;;;;9.50;4.00;;;1.40;99.90;;;;;;5038426;28;20208;-82
2021/12/09 07:30:05;;;;;;;7.53;4.00;;;1.50;99.90;;;;;;5032677;28;20519;-81
2021/12/09 07:32:36;;;;;;;11.18;3.72;;;1.50;99.90;;;;;;5028139;28;20837;-83
2021/12/09 07:35:12;;;;;;;11.07;4.28;;;1.50;99.90;;;;;;5022671;28;20202;-81
2021/12/09 07:37:40;;;;;;;6.13;3.42;;;1.60;99.90;;;;;;5025031;28;20206;-82
2021/12/09 07:40:16;;;;;;;6.40;3.33;;;1.50;99.90;;;;;;5020779;28;20261;-81
2021/12/09 07:42:43;;;;;;;9.43;3.97;;;1.50;99.90;;;;;;5020208;28;20461;-84
2021/12/09 07:45:14;;;;;;;9.97;3.80;;;1.50;99.90;;;;;;5022725;28;20453;-78
2021/12/09 07:47:43;;;;;;;8.73;3.67;;;1.50;99.90;;;;;;5022405;28;20457;-81
2021/12/09 07:50:14;;;;;;;7.03;4.00;;;1.50;99.90;;;;;;5023150;28;20563;-82
2021/12/09 07:52:41;;;;;;;6.78;3.55;;;1.40;99.90;;;;;;5037964;28;20454;-85
2021/12/09 07:55:09;;;;;;;10.98;3.63;;;1.40;99.90;;;;;;5031151;28;20210;-83
2021/12/09 07:57:38;;;;;;;6.13;3.30;;;1.50;99.90;;;;;;5022710;28;20277;-83
2021/12/09 08:00:22;;;;;;;8.45;3.75;;;1.50;99.90;;;;;;5030492;28;20469;-84
2021/12/09 08:02:50;;;;;;;7.88;3.35;;;1.50;99.90;;;;;;5013945;28;20211;-86
2021/12/09 08:05:18;;;;;;;13.73;3.60;;;1.50;99.90;;;;;;5019193;28;20199;-83
2021/12/09 08:07:44;;;;;;;7.97;3.80;;;1.50;99.90;;;;;;5028884;28;20461;-83
2021/12/09 08:10:15;;;;;;;9.80;4.07;;;1.60;99.90;;;;;;5020066;28;20477;-83
2021/12/09 08:12:44;;;;;;;16.20;4.37;;;1.80;99.90;;;;;;5033850;28;20476;-83
2021/12/09 08:15:13;;;;;;;15.63;3.67;;;2.00;99.90;;;;;;5026575;28;20453;-82
2021/12/09 08:17:57;;;;;;;10.17;4.43;;;2.20;99.90;;;;;;5026413;28;20442;-83
2021/12/09 08:20:27;;;;;;;8.77;3.80;;;2.30;99.90;;;;;;5024297;28;20488;-84
2021/12/09 08:22:55;;;;;;;11.90;4.60;;;2.40;99.90;;;;;;5033578;28;20495;-81
2021/12/09 08:25:23;;;;;;;11.97;5.20;;;2.40;99.90;;;;;;5038849;28;20537;-84
2021/12/09 08:27:51;;;;;;;11.57;4.17;;;2.50;99.90;;;;;;5040756;28;20523;-84
2021/12/09 08:30:21;;;;;;;10.60;4.20;;;2.60;99.90;;;;;;5026989;28;20477;-83
2021/12/09 08:32:48;;;;;;;10.60;4.30;;;2.60;99.90;;;;;;5023902;28;20445;-84
2021/12/09 08:35:16;;;;;;;10.93;3.90;;;2.80;99.90;;;;;;5038184;28;20449;-84
2021/12/09 08:37:44;;;;;;;9.03;3.90;;;2.80;99.90;;;;;;5041907;28;20457;-84
2021/12/09 08:40:13;;;;;;;7.00;3.97;;;2.90;99.90;;;;;;5040598;28;20477;-84
2021/12/09 08:42:40;;;;;;;10.00;3.10;;;2.90;99.90;;;;;;5039378;28;20459;-84
2021/12/09 08:45:10;;;;;;;12.83;4.40;;;2.90;99.90;;;;;;5010678;28;21025;-84
2021/12/09 08:47:38;;;;;;;9.97;3.47;;;3.00;99.90;;;;;;5024292;28;20454;-84
2021/12/09 08:50:08;;;;;;;7.90;3.30;;;3.10;99.90;;;;;;5025271;28;20476;-84
2021/12/09 08:52:36;;;;;;;9.53;3.80;;;3.10;99.90;;;;;;5038281;28;20445;-84
2021/12/09 08:55:03;;;;;;;9.43;3.70;;;3.30;99.90;;;;;;5018737;28;20460;-84
2021/12/09 08:57:32;;;;;;;10.40;4.17;;;3.40;99.90;;;;;;5024394;28;20446;-84
2021/12/09 09:00:00;;;;;;;8.70;4.07;;;3.40;99.90;;;;;;5021032;28;20564;-84
2021/12/09 09:02:29;;;;;;;10.43;3.43;;;3.50;99.90;;;;;;5034905;28;20477;-83
2021/12/09 09:04:57;;;;;;;8.60;3.53;;;3.50;99.90;;;;;;5035233;28;20449;-84
2021/12/09 09:07:24;;;;;;;10.17;4.10;;;3.60;99.90;;;;;;5016097;28;20854;-83
2021/12/09 09:09:50;;;;;;;11.03;3.57;;;3.60;99.90;;;;;;5031828;28;20475;-83
2021/12/09 09:12:17;;;;;;;7.83;3.20;;;3.80;99.90;;;;;;5027153;28;20446;-84
2021/12/09 09:14:45;;;;;;;8.70;4.17;;;3.80;99.90;;;;;;5024349;28;20851;-84
2021/12/09 09:17:11;;;;;;;13.97;4.10;;;3.90;99.90;;;;;;5045289;28;20902;-83
2021/12/09 09:19:42;;;;;;;7.87;4.30;;;4.00;99.90;;;;;;5037518;28;20469;-84
2021/12/09 09:22:09;;;;;;;13.37;4.43;;;4.00;99.90;;;;;;5034961;28;20514;-84
2021/12/09 09:24:35;;;;;;;6.90;4.10;;;4.00;99.90;;;;;;5028854;28;20450;-84
2021/12/09 09:27:02;;;;;;;10.67;3.70;;;4.10;99.90;;;;;;5041255;28;20454;-83
2021/12/09 09:29:32;;;;;;;8.73;4.20;;;4.10;99.90;;;;;;5030361;28;20842;-83
2021/12/09 09:31:59;;;;;;;11.30;3.97;;;4.10;99.90;;;;;;5044537;28;20795;-84
2021/12/09 09:34:26;;;;;;;10.63;4.33;;;4.20;99.90;;;;;;5044346;28;20454;-83
2021/12/09 09:36:54;;;;;;;6.47;3.50;;;4.30;99.90;;;;;;5029281;28;20458;-84
2021/12/09 09:39:23;;;;;;;7.17;3.03;;;4.30;99.90;;;;;;5039386;28;20470;-87
2021/12/09 09:41:58;;;;;;;7.30;3.10;;;4.40;99.90;;;;;;5035562;28;20481;-84
2021/12/09 09:44:33;;;;;;;6.17;3.50;;;4.50;99.90;;;;;;5036523;28;20465;-83
2021/12/09 09:47:01;;;;;;;10.87;4.10;;;4.70;99.90;;;;;;5042479;28;20976;-83
2021/12/09 09:49:30;;;;;;;12.60;3.50;;;4.80;99.90;;;;;;5032038;28;20457;-84
2021/12/09 09:52:00;;;;;;;7.47;3.93;;;5.10;99.90;;;;;;5034607;28;20498;-84
2021/12/09 09:54:27;;;;;;;13.60;3.50;;;5.30;99.90;;;;;;5037371;28;20465;-84
2021/12/09 09:56:53;;;;;;;10.13;3.50;;;5.50;99.90;;;;;;5025657;28;20452;-83
2021/12/09 09:59:20;;;;;;;8.00;2.90;;;5.60;99.90;;;;;;5039201;28;20477;-84
2021/12/09 10:01:52;;;;;;;9.77;3.50;;;5.80;99.90;;;;;;5033425;28;20484;-83
2021/12/09 10:04:31;;;;;;;7.43;3.00;;;5.90;99.90;;;;;;5026320;28;20454;-84
2021/12/09 10:07:00;;;;;;;11.83;3.60;;;6.10;99.90;;;;;;5029062;28;20479;-83
2021/12/09 10:09:27;;;;;;;8.27;2.90;;;6.10;99.90;;;;;;5041699;28;20472;-84
2021/12/09 10:11:55;;;;;;;6.53;3.40;;;6.20;99.90;;;;;;5029370;28;20530;-84
2021/12/09 10:14:25;;;;;;;6.73;3.10;;;6.40;99.90;;;;;;5025832;28;20483;-85
2021/12/09 10:17:06;;;;;;;11.10;3.90;;;6.30;99.90;;;;;;5026412;28;20458;-83
2021/12/09 10:19:34;;;;;;;9.13;3.73;;;6.20;99.90;;;;;;5040683;28;20521;-84
2021/12/09 10:22:08;;;;;;;6.90;3.23;;;6.20;99.90;;;;;;5045546;28;20888;-84
2021/12/09 10:24:41;;;;;;;7.13;3.40;;;6.20;99.90;;;;;;5045599;28;20529;-83
2021/12/09 10:27:13;;;;;;;11.50;3.83;;;6.30;99.90;;;;;;5046452;28;20500;-84
2021/12/09 10:29:43;;;;;;;8.60;3.47;;;6.30;99.90;;;;;;5030108;28;20491;-84
2021/12/09 10:32:14;;;;;;;8.80;3.43;;;6.50;99.90;;;;;;5026292;28;20484;-83
2021/12/09 10:34:43;;;;;;;6.70;2.90;;;6.50;99.90;;;;;;5027954;28;20455;-85
2021/12/09 10:37:14;;;;;;;5.43;2.77;;;6.70;99.90;;;;;;5029753;28;20875;-83
2021/12/09 10:39:50;;;;;;;9.40;2.87;;;6.70;99.90;;;;;;5045290;28;20471;-85
2021/12/09 10:42:22;;;;;;;7.77;2.70;;;6.60;99.90;;;;;;5050464;28;20936;-85
2021/12/09 10:44:52;;;;;;;9.80;3.60;;;6.60;99.90;;;;;;5050646;28;20548;-83
2021/12/09 10:47:34;;;;;;;6.77;3.97;;;6.40;99.90;;;;;;5051500;28;20450;-83
2021/12/09 10:50:11;;;;;;;5.80;3.20;;;6.40;99.90;;;;;;5051758;28;20494;-84
2021/12/09 10:52:44;;;;;;;8.70;3.40;;;6.50;99.90;;;;;;5050241;28;20455;-84
2021/12/09 10:55:16;;;;;;;12.63;3.70;;;6.40;99.90;;;;;;5049544;28;20481;-84
2021/12/09 10:57:44;;;;;;;7.73;3.20;;;6.40;99.90;;;;;;5049207;28;20451;-85
2021/12/09 11:00:19;;;;;;;10.07;3.90;;;6.60;99.90;;;;;;5030804;28;20467;-84
2021/12/09 11:03:09;;;;;;;5.33;3.47;;;7.00;99.90;;;;;;5022190;28;20544;-84
2021/12/09 11:05:39;;;;;;;12.83;3.67;;;7.00;99.90;;;;;;5028254;28;20449;-83
2021/12/09 11:08:22;;;;;;;7.77;3.03;;;7.30;99.90;;;;;;5028001;28;20534;-85
2021/12/09 11:10:50;;;;;;;7.23;4.33;;;7.50;99.90;;;;;;5020482;28;20515;-84
2021/12/09 11:13:21;;;;;;;7.47;2.67;;;7.30;99.90;;;;;;5027302;28;20464;-84
2021/12/09 11:15:53;;;;;;;8.37;3.90;;;7.10;99.90;;;;;;5032148;28;20468;-85
2021/12/09 11:18:36;;;;;;;11.00;3.53;;;7.10;99.90;;;;;;5033522;28;20514;-84
2021/12/09 11:21:10;;;;;;;6.13;3.30;;;6.90;99.90;;;;;;5033916;28;20461;-86
2021/12/09 11:23:42;;;;;;;12.90;3.30;;;7.20;99.90;;;;;;5033609;28;20422;-84
2021/12/09 11:26:36;;;;;;;9.87;3.60;;;6.80;99.90;;;;;;5040871;28;20434;-86
2021/12/09 11:29:08;;;;;;;7.20;3.10;;;7.10;99.90;;;;;;5037011;28;20988;-85
2021/12/09 11:31:40;;;;;;;7.60;3.03;;;7.10;99.90;;;;;;5030944;28;20451;-85
2021/12/09 11:34:12;;;;;;;7.37;3.00;;;7.00;99.90;;;;;;5036097;28;20491;-86
2021/12/09 11:36:41;;;;;;;6.80;3.70;;;6.90;99.90;;;;;;5042358;28;20452;-85
2021/12/09 11:39:16;;;;;;;8.43;3.53;;;7.00;99.90;;;;;;5036639;28;20461;-84
2021/12/09 11:41:44;;;;;;;9.17;3.50;;;7.00;99.90;;;;;;5044350;28;20515;-84
2021/12/09 11:44:11;;;;;;;8.43;3.57;;;7.10;99.90;;;;;;5035021;28;20449;-84
2021/12/09 11:46:40;;;;;;;9.83;3.97;;;7.20;99.90;;;;;;5040623;28;20446;-85
2021/12/09 11:49:08;;;;;;;8.03;3.73;;;7.00;99.90;;;;;;5043178;28;20469;-82
2021/12/09 11:51:36;;;;;;;7.30;3.13;;;6.80;99.90;;;;;;5023953;28;20454;-82
2021/12/09 11:54:05;;;;;;;14.03;5.67;;;6.90;99.90;;;;;;5017384;28;20452;-80
2021/12/09 11:56:41;;;;;;;7.30;3.57;;;6.80;99.90;;;;;;5021897;28;20482;-81
2021/12/09 12:13:42;;;;;;;7.77;3.70;;;7.20;99.90;;;;;;5035547;28;20933;-83
2021/12/09 12:16:28;;;;;;;7.57;2.90;;;7.20;99.90;;;;;;5023217;28;20472;-84
2021/12/09 12:19:00;;;;;;;7.37;4.00;;;7.30;99.90;;;;;;5023050;28;20492;-85
2021/12/09 12:22:01;;;;;;;8.83;3.67;;;7.20;99.90;;;;;;5026211;28;20469;-83
2021/12/09 12:27:42;;;;;;;8.93;3.20;;;7.20;99.90;;;;;;5003686;28;20448;-83
2021/12/09 12:30:35;;;;;;;14.37;3.73;;;7.30;99.90;;;;;;5001469;28;20485;-84
2021/12/09 12:33:15;;;;;;;8.93;3.83;;;7.20;99.90;;;;;;4974242;28;20809;-83
2021/12/09 12:39:01;;;;;;;8.03;3.57;;;6.70;99.90;;;;;;5027198;28;20445;-84
2021/12/09 12:41:28;;;;;;;9.17;3.83;;;6.60;99.90;;;;;;5033444;28;20850;-85
2021/12/09 12:44:05;;;;;;;8.87;4.00;;;6.70;99.90;;;;;;5037921;28;20948;-83
2021/12/09 12:46:49;;;;;;;7.30;3.80;;;6.50;99.90;;;;;;5041495;28;20476;-84
2021/12/09 12:49:23;;;;;;;11.50;4.30;;;6.40;99.90;;;;;;5031894;28;20479;-84
2021/12/09 12:51:55;;;;;;;7.30;3.97;;;6.40;99.90;;;;;;5049568;28;20545;-83
2021/12/09 12:54:43;;;;;;;9.03;3.93;;;6.40;99.90;;;;;;5038176;28;20466;-84
2021/12/09 12:57:15;;;;;;;9.00;4.27;;;6.50;99.90;;;;;;5030478;28;20535;-79
2021/12/09 12:59:45;;;;;;;6.83;3.43;;;6.60;99.90;;;;;;5041780;28;20459;-83
2021/12/09 13:08:30;;;;;;;7.13;3.63;;;6.70;99.90;;;;;;5033370;28;20439;-79
2021/12/09 13:11:11;;;;;;;8.10;3.57;;;6.70;99.90;;;;;;5036273;28;21027;-78
2021/12/09 13:13:47;;;;;;;10.33;3.73;;;6.70;99.90;;;;;;5046417;28;20464;-78
2021/12/09 13:16:19;;;;;;;9.13;4.20;;;6.70;99.90;;;;;;5031338;28;20529;-83
2021/12/09 13:19:08;;;;;;;13.00;3.63;;;6.70;99.90;;;;;;5036283;28;20455;-81
2021/12/09 13:21:48;;;;;;;9.90;3.60;;;6.70;99.90;;;;;;5031388;28;20461;-81
2021/12/09 13:24:42;;;;;;;8.10;3.83;;;6.70;99.90;;;;;;5034097;28;20454;-80
2021/12/09 13:27:46;;;;;;;9.03;3.87;;;6.70;99.90;;;;;;5045638;28;20451;-83
2021/12/09 13:33:47;;;;;;;5.50;3.33;;;6.40;99.90;;;;;;5054641;28;20828;-82
2021/12/09 13:36:36;;;;;;;12.77;3.87;;;6.30;99.90;;;;;;5053084;28;20516;-83
2021/12/09 13:39:41;;;;;;;8.40;4.43;;;6.10;99.90;;;;;;5053080;28;20470;-82
2021/12/09 13:47:46;;;;;;;6.53;3.10;;;5.80;99.90;;;;;;5028127;28;20832;-85